Brechin, United Kingdom
Current Conditions -  °F | °C
As of 8:50 PM on Wednesday 17 Dec 2014 (Local Time) from EGPN Reporting Station
Few Clouds Few Clouds  
Wind Chill: 39°   Ceiling: Unl
Heat Index: 43°   Visibility: 6mi
Dew Point: 39°   Wind: 7mph
Humidity: 87%   Direction: 240°WSW
Pressure: 29.44"   Gusts: NA
Location:  56.73°N, 2.66°W
Report Text: EGPN 172050Z 24006KT 9999 FEW045 06/04 Q0997
Loading
Personal Weather Stations






























Interactive Weather Map New forecast layout! Learn more

10-Day Weather Forecast

Advertisements
Track Severe Weather on mobile